Time;durP1;ratioP1;P1;durP2;ratioP2;P2;SDS_P1;SDS_P2;PMS_P1;PMS_P2;Temp;Humidity;BMP_temperature;BMP_pressure;BME280_temperature;BME280_humidity;BME280_pressure;Samples;Min_cycle;Max_cycle;Signal;HPM_P1;HPM_P2
2021/05/31 00:02:03;;;;;;;6.57;3.78;;;;;;;;;;4988456;28;20055;-48
2021/05/31 00:04:30;;;;;;;5.50;3.60;;;;;;;;;;4973418;28;20055;-50
2021/05/31 00:07:13;;;;;;;7.97;3.55;;;;;;;;;;4972123;28;20058;-45
2021/05/31 00:09:41;;;;;;;6.07;3.40;;;;;;;;;;4954852;28;20059;-45
2021/05/31 00:12:10;;;;;;;7.20;3.72;;;;;;;;;;4973470;28;20170;-48
2021/05/31 00:14:38;;;;;;;6.30;3.60;;;;;;;;;;4962560;28;20082;-45
2021/05/31 00:17:06;;;;;;;8.35;3.67;;;;;;;;;;4972516;28;20043;-47
2021/05/31 00:19:33;;;;;;;6.97;3.58;;;;;;;;;;4972517;28;20054;-45
2021/05/31 00:22:00;;;;;;;5.38;3.97;;;;;;;;;;4971582;28;20404;-45
2021/05/31 00:24:27;;;;;;;7.28;3.53;;;;;;;;;;4974674;28;20077;-46
2021/05/31 00:26:54;;;;;;;7.63;3.72;;;;;;;;;;4975716;28;20122;-47
2021/05/31 00:29:24;;;;;;;6.32;3.72;;;;;;;;;;4978998;28;20097;-48
2021/05/31 00:31:54;;;;;;;8.57;3.80;;;;;;;;;;4972414;28;20055;-46
2021/05/31 00:34:21;;;;;;;5.75;3.38;;;;;;;;;;4973045;28;20042;-47
2021/05/31 00:36:48;;;;;;;6.45;3.15;;;;;;;;;;4971309;28;20046;-47
2021/05/31 00:39:15;;;;;;;7.38;3.53;;;;;;;;;;4972753;28;20070;-47
2021/05/31 00:41:45;;;;;;;5.80;3.47;;;;;;;;;;4972062;28;20142;-45
2021/05/31 00:44:12;;;;;;;6.32;3.72;;;;;;;;;;4971462;28;20196;-45
2021/05/31 00:46:39;;;;;;;7.47;3.70;;;;;;;;;;4962400;28;20082;-48
2021/05/31 00:49:06;;;;;;;6.30;3.50;;;;;;;;;;4972507;28;20059;-44
2021/05/31 00:51:33;;;;;;;6.38;3.90;;;;;;;;;;4971556;28;20135;-47
2021/05/31 00:53:59;;;;;;;6.43;3.65;;;;;;;;;;4970834;28;20543;-46
2021/05/31 00:56:26;;;;;;;8.35;3.90;;;;;;;;;;4981384;28;20487;-48
2021/05/31 00:58:53;;;;;;;7.25;3.70;;;;;;;;;;4990072;28;20081;-47
2021/05/31 01:01:21;;;;;;;5.57;3.53;;;;;;;;;;4979292;28;20085;-48
2021/05/31 01:03:49;;;;;;;5.50;3.53;;;;;;;;;;4972258;28;20473;-46
2021/05/31 01:06:19;;;;;;;5.75;3.75;;;;;;;;;;4971689;28;20460;-48
2021/05/31 01:08:52;;;;;;;5.05;3.65;;;;;;;;;;4977759;28;20145;-45
2021/05/31 01:11:29;;;;;;;5.07;3.47;;;;;;;;;;4991459;28;20156;-46
2021/05/31 01:13:56;;;;;;;5.20;3.50;;;;;;;;;;4991121;28;20046;-46
2021/05/31 01:16:41;;;;;;;6.03;3.83;;;;;;;;;;4978494;28;20043;-44
2021/05/31 01:19:17;;;;;;;6.53;3.97;;;;;;;;;;4971985;28;20086;-46
2021/05/31 01:22:02;;;;;;;5.43;4.10;;;;;;;;;;4971666;28;20544;-45
2021/05/31 01:24:42;;;;;;;5.53;3.40;;;;;;;;;;4982530;28;20145;-46
2021/05/31 01:27:11;;;;;;;5.57;3.75;;;;;;;;;;4973017;28;20071;-48
2021/05/31 01:29:38;;;;;;;6.28;3.80;;;;;;;;;;4983437;28;20077;-49
2021/05/31 01:32:09;;;;;;;6.78;4.00;;;;;;;;;;4971179;28;20580;-46
2021/05/31 01:34:36;;;;;;;5.25;4.03;;;;;;;;;;4971569;28;20556;-46
2021/05/31 01:37:04;;;;;;;5.47;3.65;;;;;;;;;;4974844;28;20128;-46
2021/05/31 01:39:33;;;;;;;6.38;4.03;;;;;;;;;;4973583;28;20070;-46
2021/05/31 01:42:01;;;;;;;6.55;4.40;;;;;;;;;;4970993;28;20079;-49
2021/05/31 01:44:28;;;;;;;6.88;4.70;;;;;;;;;;4971594;28;20513;-46
2021/05/31 01:46:55;;;;;;;6.47;4.38;;;;;;;;;;4987130;28;20076;-46
2021/05/31 01:49:22;;;;;;;7.70;4.30;;;;;;;;;;4984189;28;20165;-47
2021/05/31 01:51:50;;;;;;;6.55;4.28;;;;;;;;;;4971314;28;20497;-48
2021/05/31 01:54:17;;;;;;;6.20;4.30;;;;;;;;;;4964611;28;20118;-46
2021/05/31 01:56:48;;;;;;;8.43;4.53;;;;;;;;;;4961012;28;20098;-47
2021/05/31 01:59:17;;;;;;;5.78;4.13;;;;;;;;;;4971764;28;20078;-49
2021/05/31 02:01:45;;;;;;;7.28;4.47;;;;;;;;;;4971308;28;20105;-46
2021/05/31 02:04:12;;;;;;;6.13;4.55;;;;;;;;;;4970240;28;20369;-46
2021/05/31 02:06:39;;;;;;;7.18;4.78;;;;;;;;;;4970551;28;20082;-48
2021/05/31 02:09:05;;;;;;;6.55;4.60;;;;;;;;;;4970042;28;20420;-45
2021/05/31 02:11:43;;;;;;;7.28;4.65;;;;;;;;;;4971586;28;20471;-48
2021/05/31 02:14:15;;;;;;;7.00;4.60;;;;;;;;;;4969880;28;20065;-50
2021/05/31 02:16:56;;;;;;;7.20;4.43;;;;;;;;;;4968626;28;20463;-46
2021/05/31 02:19:23;;;;;;;6.25;4.55;;;;;;;;;;4970866;28;20055;-46
2021/05/31 02:21:51;;;;;;;7.15;4.47;;;;;;;;;;4971409;28;20121;-49
2021/05/31 02:24:18;;;;;;;6.03;4.53;;;;;;;;;;4971331;28;20051;-47
2021/05/31 02:26:46;;;;;;;7.68;4.88;;;;;;;;;;4970990;28;20113;-46
2021/05/31 02:29:13;;;;;;;8.90;5.13;;;;;;;;;;4966831;28;20121;-47
2021/05/31 02:31:41;;;;;;;6.00;4.75;;;;;;;;;;4963530;28;20373;-48
2021/05/31 02:34:08;;;;;;;7.35;4.88;;;;;;;;;;4971037;28;20051;-47
2021/05/31 02:36:35;;;;;;;6.93;5.50;;;;;;;;;;4970557;28;20055;-47
2021/05/31 02:39:02;;;;;;;8.20;5.20;;;;;;;;;;4971587;28;20397;-46
2021/05/31 02:41:30;;;;;;;6.55;4.95;;;;;;;;;;4970879;28;20051;-45
2021/05/31 02:43:56;;;;;;;7.05;4.82;;;;;;;;;;4971351;28;20644;-46
2021/05/31 02:46:23;;;;;;;7.72;5.60;;;;;;;;;;4961751;28;20058;-51
2021/05/31 02:48:50;;;;;;;7.20;5.25;;;;;;;;;;4972308;28;20057;-48
2021/05/31 02:51:17;;;;;;;9.88;5.97;;;;;;;;;;4971084;28;20422;-46
2021/05/31 02:53:44;;;;;;;6.63;5.10;;;;;;;;;;4971247;28;20741;-46
2021/05/31 02:56:11;;;;;;;10.35;5.53;;;;;;;;;;4973624;28;20533;-47
2021/05/31 02:58:37;;;;;;;8.63;5.15;;;;;;;;;;4973265;28;20042;-49
2021/05/31 03:01:04;;;;;;;7.70;5.72;;;;;;;;;;4974955;28;20362;-50
2021/05/31 03:03:31;;;;;;;7.65;4.90;;;;;;;;;;4974517;28;20081;-48
2021/05/31 03:05:58;;;;;;;6.72;4.90;;;;;;;;;;4974911;28;20102;-46
2021/05/31 03:08:25;;;;;;;10.48;5.80;;;;;;;;;;4976557;28;20124;-48
2021/05/31 03:10:54;;;;;;;8.07;5.35;;;;;;;;;;4994138;28;20500;-52
2021/05/31 03:13:21;;;;;;;8.77;5.30;;;;;;;;;;4993762;28;20101;-48
2021/05/31 03:15:49;;;;;;;8.20;5.22;;;;;;;;;;4993590;28;20050;-47
2021/05/31 03:18:16;;;;;;;7.40;4.90;;;;;;;;;;4973086;28;20047;-47
2021/05/31 03:20:43;;;;;;;7.75;5.68;;;;;;;;;;4973963;28;20050;-50
2021/05/31 03:23:10;;;;;;;8.70;5.28;;;;;;;;;;4973762;28;20054;-46
2021/05/31 03:25:37;;;;;;;7.88;5.68;;;;;;;;;;4975375;28;20051;-46
2021/05/31 03:28:05;;;;;;;7.45;5.25;;;;;;;;;;4978354;28;20047;-46
2021/05/31 03:30:32;;;;;;;7.88;5.40;;;;;;;;;;4964328;28;20043;-47
2021/05/31 03:32:59;;;;;;;8.85;5.60;;;;;;;;;;4973843;28;20480;-46
2021/05/31 03:35:26;;;;;;;8.63;5.90;;;;;;;;;;4973715;28;20055;-46
2021/05/31 03:37:53;;;;;;;11.07;5.80;;;;;;;;;;4973776;28;20469;-50
2021/05/31 03:40:21;;;;;;;8.02;5.53;;;;;;;;;;4973967;28;20453;-45
2021/05/31 03:42:48;;;;;;;8.80;5.93;;;;;;;;;;4973681;28;20457;-46
2021/05/31 03:45:15;;;;;;;12.00;6.28;;;;;;;;;;4971751;28;20504;-45
2021/05/31 03:47:42;;;;;;;10.80;6.18;;;;;;;;;;4963601;28;20102;-47
2021/05/31 03:50:10;;;;;;;9.75;6.10;;;;;;;;;;4973650;28;20398;-45
2021/05/31 03:52:37;;;;;;;8.25;5.72;;;;;;;;;;4973761;28;20047;-45
2021/05/31 03:55:05;;;;;;;10.80;6.25;;;;;;;;;;4976508;28;20069;-46
2021/05/31 03:57:33;;;;;;;8.55;6.15;;;;;;;;;;4972682;28;20046;-48
2021/05/31 04:00:00;;;;;;;8.85;6.10;;;;;;;;;;4972751;28;20452;-48
2021/05/31 04:02:28;;;;;;;8.20;5.55;;;;;;;;;;4973768;28;20134;-46
2021/05/31 04:04:56;;;;;;;13.90;6.72;;;;;;;;;;4973038;28;20142;-48
2021/05/31 04:12:56;;;;;;;11.02;6.25;;;;;;;;;;4982154;28;20535;-45
2021/05/31 04:15:23;;;;;;;9.43;5.63;;;;;;;;;;4972897;28;20058;-48
2021/05/31 04:17:49;;;;;;;12.63;6.65;;;;;;;;;;4972462;28;20081;-47
2021/05/31 04:20:17;;;;;;;11.23;6.53;;;;;;;;;;4972915;28;20122;-48
2021/05/31 04:22:44;;;;;;;10.77;6.30;;;;;;;;;;4972963;28;20050;-46
2021/05/31 04:25:11;;;;;;;11.63;6.47;;;;;;;;;;4968261;28;20059;-45
2021/05/31 04:27:38;;;;;;;10.38;6.00;;;;;;;;;;4958665;28;20200;-47
2021/05/31 04:30:06;;;;;;;10.10;6.50;;;;;;;;;;4977666;28;20050;-47
2021/05/31 04:32:32;;;;;;;11.63;6.50;;;;;;;;;;4979245;28;20062;-45
2021/05/31 04:34:59;;;;;;;11.05;6.28;;;;;;;;;;4973263;28;20051;-45
2021/05/31 04:37:26;;;;;;;9.73;5.95;;;;;;;;;;4971682;28;20500;-49
2021/05/31 04:39:55;;;;;;;11.60;5.88;;;;;;;;;;4976219;28;20047;-46
2021/05/31 04:42:22;;;;;;;9.40;6.15;;;;;;;;;;4971040;28;21805;-45
2021/05/31 04:44:48;;;;;;;9.73;6.03;;;;;;;;;;4955782;28;20472;-47
2021/05/31 04:47:15;;;;;;;9.38;6.50;;;;;;;;;;4961829;28;20051;-45
2021/05/31 04:49:42;;;;;;;10.40;6.35;;;;;;;;;;4971383;28;20138;-46
2021/05/31 04:52:10;;;;;;;13.02;5.55;;;;;;;;;;4972491;28;20134;-48
2021/05/31 04:54:37;;;;;;;8.93;6.40;;;;;;;;;;4972394;28;20062;-48
2021/05/31 04:57:04;;;;;;;12.80;7.07;;;;;;;;;;4978302;28;20050;-47
2021/05/31 04:59:30;;;;;;;12.43;5.88;;;;;;;;;;4972111;28;20055;-46
2021/05/31 05:01:57;;;;;;;9.10;6.30;;;;;;;;;;4972479;28;20097;-49
2021/05/31 05:04:24;;;;;;;8.05;6.07;;;;;;;;;;4972055;28;20051;-48
2021/05/31 05:06:51;;;;;;;9.10;6.22;;;;;;;;;;4971593;28;20148;-48
2021/05/31 05:09:17;;;;;;;9.15;6.10;;;;;;;;;;4972633;28;20062;-47
2021/05/31 05:11:44;;;;;;;9.77;6.35;;;;;;;;;;4970821;28;20051;-47
2021/05/31 05:14:11;;;;;;;10.45;6.38;;;;;;;;;;4972933;28;20050;-46
2021/05/31 05:16:38;;;;;;;7.07;5.25;;;;;;;;;;4981657;28;20054;-50
2021/05/31 05:19:05;;;;;;;8.38;6.15;;;;;;;;;;4974561;28;20076;-49
2021/05/31 05:21:32;;;;;;;7.82;5.78;;;;;;;;;;4971309;28;20047;-49
2021/05/31 05:23:58;;;;;;;8.85;6.30;;;;;;;;;;4978481;28;20451;-47
2021/05/31 05:26:25;;;;;;;7.95;6.03;;;;;;;;;;4989476;28;20054;-47
2021/05/31 05:28:52;;;;;;;8.60;6.50;;;;;;;;;;4983776;28;20128;-48
2021/05/31 05:31:19;;;;;;;9.07;6.20;;;;;;;;;;4971179;28;20055;-47
2021/05/31 05:33:46;;;;;;;9.80;6.75;;;;;;;;;;4970417;28;20046;-47
2021/05/31 05:39:00;;;;;;;7.57;6.13;;;;;;;;;;4978155;28;20085;-47
2021/05/31 05:46:49;;;;;;;10.00;6.18;;;;;;;;;;4987716;28;20097;-50
2021/05/31 05:49:16;;;;;;;7.93;6.40;;;;;;;;;;4976537;28;20050;-47
2021/05/31 05:51:42;;;;;;;9.75;6.05;;;;;;;;;;4972601;28;20059;-46
2021/05/31 05:54:09;;;;;;;8.00;5.70;;;;;;;;;;4979887;28;20050;-49
2021/05/31 05:56:36;;;;;;;8.15;6.35;;;;;;;;;;4971844;28;20055;-46
2021/05/31 05:59:03;;;;;;;10.70;6.05;;;;;;;;;;4978489;28;20525;-48
2021/05/31 06:01:30;;;;;;;8.25;6.63;;;;;;;;;;4971554;28;20505;-50
2021/05/31 06:03:57;;;;;;;9.73;6.20;;;;;;;;;;4971634;28;20067;-47
2021/05/31 06:06:25;;;;;;;9.73;6.47;;;;;;;;;;4971300;28;20453;-47
2021/05/31 06:08:52;;;;;;;9.73;6.35;;;;;;;;;;4979405;28;20058;-47
2021/05/31 06:11:20;;;;;;;11.43;6.53;;;;;;;;;;4988692;28;20058;-45
2021/05/31 06:13:51;;;;;;;10.95;7.38;;;;;;;;;;4971410;28;20055;-48
2021/05/31 06:16:18;;;;;;;9.98;6.47;;;;;;;;;;4971758;28;20058;-49
2021/05/31 06:18:45;;;;;;;8.35;6.30;;;;;;;;;;4971384;28;20054;-46
2021/05/31 06:21:12;;;;;;;8.10;5.28;;;;;;;;;;4971737;28;20607;-45
2021/05/31 06:23:39;;;;;;;8.40;6.55;;;;;;;;;;4971106;28;20059;-46
2021/05/31 06:26:05;;;;;;;8.10;6.22;;;;;;;;;;4973303;28;20109;-52
2021/05/31 06:28:32;;;;;;;10.02;6.53;;;;;;;;;;4976553;28;20113;-46
2021/05/31 06:30:59;;;;;;;9.77;7.18;;;;;;;;;;4975537;28;20473;-44
2021/05/31 06:33:26;;;;;;;9.30;6.88;;;;;;;;;;4974956;28;20066;-46
2021/05/31 06:35:55;;;;;;;10.30;7.15;;;;;;;;;;4975439;28;20420;-45
2021/05/31 06:38:21;;;;;;;9.82;7.20;;;;;;;;;;4981151;28;20117;-46
2021/05/31 06:40:49;;;;;;;9.18;6.97;;;;;;;;;;4975152;28;20058;-49
2021/05/31 06:43:16;;;;;;;9.13;6.65;;;;;;;;;;4973568;28;20081;-47
2021/05/31 06:45:43;;;;;;;9.63;6.80;;;;;;;;;;4971084;28;20089;-49
2021/05/31 06:48:10;;;;;;;7.55;6.10;;;;;;;;;;4973994;28;20042;-46
2021/05/31 06:50:37;;;;;;;8.68;6.70;;;;;;;;;;4981528;28;20099;-51
2021/05/31 06:53:04;;;;;;;7.15;6.03;;;;;;;;;;4975330;28;20074;-47
2021/05/31 06:55:31;;;;;;;12.45;7.25;;;;;;;;;;4974881;28;20058;-49
2021/05/31 06:57:59;;;;;;;8.80;6.20;;;;;;;;;;4973505;28;20046;-49
2021/05/31 07:00:26;;;;;;;10.00;6.13;;;;;;;;;;4973477;28;20073;-50
2021/05/31 07:02:54;;;;;;;8.88;6.10;;;;;;;;;;4974789;28;20053;-45
2021/05/31 07:05:21;;;;;;;8.10;6.55;;;;;;;;;;4974605;28;20162;-48
2021/05/31 07:07:49;;;;;;;8.40;6.40;;;;;;;;;;4973826;28;20054;-48
2021/05/31 07:10:18;;;;;;;8.32;5.57;;;;;;;;;;4987882;28;20135;-46
2021/05/31 07:12:46;;;;;;;8.45;5.45;;;;;;;;;;4970103;28;20054;-48
2021/05/31 07:15:14;;;;;;;8.93;6.18;;;;;;;;;;4974131;28;20047;-46
2021/05/31 07:17:41;;;;;;;10.15;6.32;;;;;;;;;;4974058;28;20421;-49
2021/05/31 07:20:09;;;;;;;8.50;6.35;;;;;;;;;;4985894;28;20054;-45
2021/05/31 07:22:36;;;;;;;7.82;5.93;;;;;;;;;;4974305;28;20501;-46
2021/05/31 07:25:04;;;;;;;8.38;6.28;;;;;;;;;;4974790;28;20058;-47
2021/05/31 07:27:33;;;;;;;7.53;5.95;;;;;;;;;;4985009;28;20496;-46
2021/05/31 07:30:00;;;;;;;8.27;6.25;;;;;;;;;;4978045;28;20055;-48
2021/05/31 07:32:26;;;;;;;9.43;6.20;;;;;;;;;;4984811;28;20129;-49
2021/05/31 07:34:53;;;;;;;7.85;5.72;;;;;;;;;;4974123;28;20090;-50
2021/05/31 07:37:20;;;;;;;6.72;5.47;;;;;;;;;;4972657;28;20047;-50
2021/05/31 07:39:47;;;;;;;7.95;5.53;;;;;;;;;;4982874;28;20051;-49
2021/05/31 07:42:14;;;;;;;8.15;4.93;;;;;;;;;;4973788;28;20419;-47
2021/05/31 07:44:40;;;;;;;8.02;5.43;;;;;;;;;;4973448;28;20085;-46
2021/05/31 07:47:07;;;;;;;7.97;4.70;;;;;;;;;;4972923;28;20059;-47
2021/05/31 07:49:34;;;;;;;7.65;4.90;;;;;;;;;;4973562;28;20133;-51
2021/05/31 07:52:19;;;;;;;9.30;5.07;;;;;;;;;;4973459;28;20051;-51
2021/05/31 07:54:49;;;;;;;8.38;4.45;;;;;;;;;;4961611;28;20429;-52
2021/05/31 07:57:16;;;;;;;7.60;4.75;;;;;;;;;;4967063;28;20039;-50
2021/05/31 07:59:45;;;;;;;5.90;4.65;;;;;;;;;;4964212;28;20397;-49
2021/05/31 08:02:19;;;;;;;7.43;5.05;;;;;;;;;;4968904;28;20079;-49
2021/05/31 08:04:46;;;;;;;5.97;4.57;;;;;;;;;;4971546;28;20050;-47
2021/05/31 08:07:13;;;;;;;6.32;4.60;;;;;;;;;;4972347;28;20102;-47
2021/05/31 08:09:40;;;;;;;5.72;4.57;;;;;;;;;;4978628;28;20054;-50
2021/05/31 08:12:07;;;;;;;5.22;4.18;;;;;;;;;;4973237;28;20063;-47
2021/05/31 08:14:34;;;;;;;5.32;4.40;;;;;;;;;;4972909;28;20575;-48
2021/05/31 08:17:01;;;;;;;7.18;4.93;;;;;;;;;;4972516;28;20051;-50
2021/05/31 08:19:30;;;;;;;6.45;4.38;;;;;;;;;;4956596;28;20078;-48
2021/05/31 08:21:57;;;;;;;6.97;3.63;;;;;;;;;;4972837;28;20042;-52
2021/05/31 08:24:25;;;;;;;9.38;4.88;;;;;;;;;;4972781;28;20122;-48
2021/05/31 08:26:52;;;;;;;5.43;4.15;;;;;;;;;;4972069;28;20611;-47
2021/05/31 08:29:20;;;;;;;5.65;4.22;;;;;;;;;;4972371;28;20051;-50
2021/05/31 08:31:48;;;;;;;5.25;3.80;;;;;;;;;;4972455;28;20581;-47
2021/05/31 08:34:15;;;;;;;5.25;4.20;;;;;;;;;;4972528;28;20051;-47
2021/05/31 08:36:44;;;;;;;7.22;3.92;;;;;;;;;;4973072;28;20058;-51
2021/05/31 08:39:11;;;;;;;6.13;3.97;;;;;;;;;;4971844;28;20059;-48
2021/05/31 08:41:38;;;;;;;7.00;4.07;;;;;;;;;;4974459;28;20054;-51
2021/05/31 08:44:06;;;;;;;5.13;4.22;;;;;;;;;;4972021;28;20129;-54
2021/05/31 08:46:36;;;;;;;6.25;4.25;;;;;;;;;;4969061;28;20067;-50
2021/05/31 08:49:05;;;;;;;9.60;4.60;;;;;;;;;;4969297;28;20165;-48
2021/05/31 08:51:33;;;;;;;5.45;4.55;;;;;;;;;;4969603;28;20428;-51
2021/05/31 08:54:00;;;;;;;6.18;4.57;;;;;;;;;;4971052;28;20493;-48
2021/05/31 08:56:27;;;;;;;5.97;4.30;;;;;;;;;;4969514;28;20051;-49
2021/05/31 08:58:54;;;;;;;5.32;4.25;;;;;;;;;;4982955;28;20050;-49
2021/05/31 09:01:24;;;;;;;7.28;5.45;;;;;;;;;;4970159;28;20058;-51
2021/05/31 09:03:55;;;;;;;5.78;4.68;;;;;;;;;;4968295;28;20077;-51
2021/05/31 09:06:23;;;;;;;5.78;3.85;;;;;;;;;;4971154;28;20176;-48
2021/05/31 09:08:52;;;;;;;7.10;5.22;;;;;;;;;;4974799;28;20055;-47
2021/05/31 09:11:20;;;;;;;8.15;4.50;;;;;;;;;;4967633;28;20393;-50
2021/05/31 09:13:47;;;;;;;5.72;4.38;;;;;;;;;;4969884;28;20512;-50
2021/05/31 09:16:14;;;;;;;6.57;4.22;;;;;;;;;;4971472;28;21461;-51
2021/05/31 09:18:46;;;;;;;8.30;4.07;;;;;;;;;;4969666;28;20137;-48
2021/05/31 09:21:22;;;;;;;8.80;4.60;;;;;;;;;;4969606;28;20062;-50
2021/05/31 09:23:56;;;;;;;6.53;4.10;;;;;;;;;;4971357;28;20051;-51
2021/05/31 09:26:23;;;;;;;9.15;4.28;;;;;;;;;;4973049;28;20046;-50
2021/05/31 09:28:53;;;;;;;5.68;4.15;;;;;;;;;;4969867;28;20189;-48
2021/05/31 09:31:21;;;;;;;5.53;3.97;;;;;;;;;;4970725;28;20082;-49
2021/05/31 09:33:58;;;;;;;8.52;4.22;;;;;;;;;;4970889;28;20155;-51
2021/05/31 09:36:25;;;;;;;5.13;3.85;;;;;;;;;;4968436;28;20543;-50
2021/05/31 09:38:52;;;;;;;5.15;3.88;;;;;;;;;;4967736;28;20042;-47
2021/05/31 09:41:28;;;;;;;5.60;3.80;;;;;;;;;;4971693;28;20039;-50
2021/05/31 09:43:57;;;;;;;10.10;4.20;;;;;;;;;;4960127;28;20074;-48
2021/05/31 09:46:33;;;;;;;6.55;3.60;;;;;;;;;;4962568;28;20096;-48
2021/05/31 09:49:00;;;;;;;6.20;4.00;;;;;;;;;;4957630;28;20066;-48
2021/05/31 09:51:28;;;;;;;6.25;4.63;;;;;;;;;;4970844;28;20073;-49
2021/05/31 09:53:55;;;;;;;8.80;4.18;;;;;;;;;;4958555;28;20138;-47
2021/05/31 09:56:22;;;;;;;5.82;4.20;;;;;;;;;;4969801;28;20139;-46
2021/05/31 09:59:01;;;;;;;5.65;3.88;;;;;;;;;;4970229;28;20049;-52
2021/05/31 10:01:35;;;;;;;6.40;3.45;;;;;;;;;;4959289;28;20081;-52
2021/05/31 10:07:02;;;;;;;4.65;3.35;;;;;;;;;;4967728;28;20409;-49
2021/05/31 10:09:30;;;;;;;4.50;3.65;;;;;;;;;;4969591;28;20069;-50
2021/05/31 10:11:57;;;;;;;5.97;3.78;;;;;;;;;;4970722;28;20113;-52
2021/05/31 10:14:24;;;;;;;4.18;3.53;;;;;;;;;;4972996;28;20184;-50
2021/05/31 10:16:51;;;;;;;5.45;3.83;;;;;;;;;;4987910;28;20094;-52
2021/05/31 10:19:18;;;;;;;5.40;3.80;;;;;;;;;;4974142;28;20054;-52
2021/05/31 10:21:45;;;;;;;5.22;3.72;;;;;;;;;;4974083;28;20074;-51
2021/05/31 10:24:12;;;;;;;7.32;3.78;;;;;;;;;;4974157;28;20408;-50
2021/05/31 10:26:39;;;;;;;4.32;3.53;;;;;;;;;;4973800;28;20086;-49
2021/05/31 10:29:08;;;;;;;6.95;4.15;;;;;;;;;;4973517;28;20078;-52
2021/05/31 10:31:45;;;;;;;4.85;3.50;;;;;;;;;;4963239;28;20501;-52
2021/05/31 10:34:21;;;;;;;4.45;3.20;;;;;;;;;;4972810;28;20061;-49
2021/05/31 10:36:51;;;;;;;7.00;3.10;;;;;;;;;;4974971;28;20527;-46
2021/05/31 10:39:21;;;;;;;5.72;2.50;;;;;;;;;;4983421;28;20097;-48
2021/05/31 10:41:49;;;;;;;3.92;2.30;;;;;;;;;;4972679;28;20055;-47
2021/05/31 10:44:17;;;;;;;5.57;3.45;;;;;;;;;;4972275;28;20385;-46
2021/05/31 10:46:44;;;;;;;5.03;3.15;;;;;;;;;;4975678;28;20059;-53
2021/05/31 10:49:20;;;;;;;5.03;2.90;;;;;;;;;;4987711;28;20567;-55
2021/05/31 10:51:47;;;;;;;4.20;3.08;;;;;;;;;;4974031;28;20143;-54
2021/05/31 10:54:15;;;;;;;4.20;3.03;;;;;;;;;;4972970;28;20047;-53
2021/05/31 10:56:43;;;;;;;3.78;3.00;;;;;;;;;;4972876;28;20344;-55
2021/05/31 10:59:15;;;;;;;7.28;3.45;;;;;;;;;;4995415;28;20080;-54
2021/05/31 11:01:42;;;;;;;4.05;2.90;;;;;;;;;;4972582;28;20075;-54
2021/05/31 11:04:19;;;;;;;5.78;3.35;;;;;;;;;;4973396;28;20066;-54
2021/05/31 11:06:46;;;;;;;6.47;3.00;;;;;;;;;;4970757;28;20082;-57
2021/05/31 11:09:15;;;;;;;5.68;2.90;;;;;;;;;;4976952;28;20055;-54
2021/05/31 11:11:42;;;;;;;4.93;2.50;;;;;;;;;;4973233;28;20058;-54
2021/05/31 11:14:09;;;;;;;3.60;2.33;;;;;;;;;;4981624;28;20122;-55
2021/05/31 11:16:56;;;;;;;4.10;2.53;;;;;;;;;;4974736;28;20047;-55
2021/05/31 11:19:33;;;;;;;3.70;2.92;;;;;;;;;;4968189;28;20550;-56
2021/05/31 11:22:11;;;;;;;3.72;2.67;;;;;;;;;;4979045;28;20405;-54
2021/05/31 11:24:37;;;;;;;4.63;3.03;;;;;;;;;;4978987;28;20043;-55
2021/05/31 11:27:07;;;;;;;4.10;2.60;;;;;;;;;;4975349;28;20070;-55
2021/05/31 11:29:35;;;;;;;4.00;2.80;;;;;;;;;;4973645;28;20055;-52
2021/05/31 11:32:02;;;;;;;4.80;3.20;;;;;;;;;;4972583;28;20049;-52
2021/05/31 11:34:29;;;;;;;5.55;2.60;;;;;;;;;;4973388;28;20066;-55
2021/05/31 11:36:57;;;;;;;3.78;2.78;;;;;;;;;;4972726;28;20047;-52
2021/05/31 11:39:24;;;;;;;4.93;3.10;;;;;;;;;;4972030;28;20050;-46
2021/05/31 11:41:53;;;;;;;3.90;2.67;;;;;;;;;;4972301;28;20077;-48
2021/05/31 11:44:19;;;;;;;4.90;2.60;;;;;;;;;;4973617;28;20555;-50
2021/05/31 11:46:48;;;;;;;3.38;2.30;;;;;;;;;;4971158;28;20078;-45
2021/05/31 11:49:15;;;;;;;4.63;2.65;;;;;;;;;;4972790;28;20058;-44
2021/05/31 11:51:42;;;;;;;5.45;2.75;;;;;;;;;;4971789;28;20066;-47
2021/05/31 11:54:19;;;;;;;4.28;2.78;;;;;;;;;;4972021;28;20078;-46
2021/05/31 11:56:46;;;;;;;3.40;2.65;;;;;;;;;;4970657;28;20074;-50
2021/05/31 11:59:15;;;;;;;3.97;2.70;;;;;;;;;;4991445;28;20070;-46
2021/05/31 12:01:48;;;;;;;3.30;2.38;;;;;;;;;;4971746;28;20055;-48
2021/05/31 12:04:15;;;;;;;4.82;2.63;;;;;;;;;;4971642;28;20045;-44
2021/05/31 12:06:43;;;;;;;5.20;2.60;;;;;;;;;;4976339;28;20058;-45
2021/05/31 12:09:16;;;;;;;4.63;2.38;;;;;;;;;;4971138;28;20047;-44
2021/05/31 12:11:43;;;;;;;3.55;2.50;;;;;;;;;;4971146;28;20070;-45
2021/05/31 12:14:11;;;;;;;6.13;2.63;;;;;;;;;;4971562;28;20441;-46
2021/05/31 12:16:38;;;;;;;7.20;2.90;;;;;;;;;;4972059;28;20053;-47
2021/05/31 12:19:14;;;;;;;5.05;3.08;;;;;;;;;;4976441;28;20053;-49
2021/05/31 12:21:42;;;;;;;3.97;2.75;;;;;;;;;;4972072;28;20074;-48
2021/05/31 12:24:09;;;;;;;6.03;3.10;;;;;;;;;;4972936;28;20121;-48
2021/05/31 12:26:37;;;;;;;4.13;2.53;;;;;;;;;;4972243;28;20444;-47
2021/05/31 12:29:09;;;;;;;4.15;2.30;;;;;;;;;;4976511;28;20062;-49
2021/05/31 12:31:36;;;;;;;3.60;2.50;;;;;;;;;;4972263;28;20054;-49
2021/05/31 12:34:03;;;;;;;4.32;2.35;;;;;;;;;;4970935;28;20066;-49
2021/05/31 12:36:30;;;;;;;4.10;2.80;;;;;;;;;;4972528;28;20410;-49
2021/05/31 12:38:57;;;;;;;4.07;2.50;;;;;;;;;;4972098;28;20050;-54
2021/05/31 12:41:24;;;;;;;5.32;3.50;;;;;;;;;;4971705;28;20054;-51
2021/05/31 12:43:51;;;;;;;4.63;2.60;;;;;;;;;;4971426;28;20093;-50
2021/05/31 12:46:19;;;;;;;4.03;2.83;;;;;;;;;;4984440;28;20046;-45
2021/05/31 12:48:49;;;;;;;6.40;2.80;;;;;;;;;;4968172;28;20169;-44
2021/05/31 12:51:16;;;;;;;4.05;2.30;;;;;;;;;;4970158;28;20149;-47
2021/05/31 12:53:48;;;;;;;4.07;3.10;;;;;;;;;;4967784;28;20133;-47
2021/05/31 12:56:15;;;;;;;4.30;2.85;;;;;;;;;;4972344;28;20050;-50
2021/05/31 12:59:06;;;;;;;4.88;2.65;;;;;;;;;;4970022;28;20046;-48
2021/05/31 13:01:33;;;;;;;6.03;2.90;;;;;;;;;;4968647;28;20117;-48
2021/05/31 13:04:01;;;;;;;4.30;2.42;;;;;;;;;;4986472;28;20045;-47
2021/05/31 13:06:40;;;;;;;6.97;2.83;;;;;;;;;;4970561;28;20446;-46
2021/05/31 13:09:08;;;;;;;5.38;2.83;;;;;;;;;;4971063;28;20047;-48
2021/05/31 13:11:43;;;;;;;4.35;2.72;;;;;;;;;;4970606;28;20568;-45
2021/05/31 13:14:25;;;;;;;5.05;2.63;;;;;;;;;;4971653;28;20117;-48
2021/05/31 13:16:52;;;;;;;4.38;2.67;;;;;;;;;;4966683;28;20055;-45
2021/05/31 13:19:23;;;;;;;3.45;2.67;;;;;;;;;;4970926;28;20050;-48
2021/05/31 13:21:56;;;;;;;5.88;2.60;;;;;;;;;;4971200;28;20058;-47
2021/05/31 13:24:23;;;;;;;;;;;;;;;;;;4972761;28;20046;-47
2021/05/31 13:26:50;;;;;;;4.70;2.60;;;;;;;;;;4973583;28;20415;-46
2021/05/31 13:29:20;;;;;;;4.20;2.83;;;;;;;;;;4976483;28;20066;-43
2021/05/31 13:31:47;;;;;;;3.70;2.50;;;;;;;;;;4971409;28;20449;-42
2021/05/31 13:34:14;;;;;;;5.57;2.83;;;;;;;;;;4977247;28;20511;-45
2021/05/31 13:36:41;;;;;;;9.48;3.30;;;;;;;;;;4967245;28;20086;-47
2021/05/31 13:39:12;;;;;;;4.30;3.22;;;;;;;;;;4973605;28;20479;-49
2021/05/31 13:41:39;;;;;;;4.05;3.00;;;;;;;;;;4967424;28;20046;-49
2021/05/31 13:44:07;;;;;;;5.00;2.85;;;;;;;;;;4968976;28;20082;-52
2021/05/31 13:46:34;;;;;;;5.40;2.40;;;;;;;;;;4970482;28;20070;-46
2021/05/31 13:49:02;;;;;;;5.57;2.70;;;;;;;;;;4970178;28;20478;-46
2021/05/31 13:51:28;;;;;;;4.00;3.00;;;;;;;;;;4966108;28;20046;-47
2021/05/31 13:53:56;;;;;;;3.45;2.50;;;;;;;;;;4971007;28;20047;-51
2021/05/31 13:56:23;;;;;;;3.42;2.33;;;;;;;;;;4969682;28;20059;-52
2021/05/31 13:58:50;;;;;;;6.65;2.55;;;;;;;;;;4976710;28;20058;-47
2021/05/31 14:01:17;;;;;;;4.22;2.28;;;;;;;;;;4970516;28;20385;-47
2021/05/31 14:03:44;;;;;;;4.30;3.28;;;;;;;;;;4970646;28;20139;-49
2021/05/31 14:06:10;;;;;;;4.10;3.13;;;;;;;;;;4967568;28;20105;-53
2021/05/31 14:08:49;;;;;;;3.38;2.90;;;;;;;;;;4963331;28;20473;-47
2021/05/31 14:11:16;;;;;;;3.95;2.90;;;;;;;;;;4970645;28;20065;-46
2021/05/31 14:13:43;;;;;;;6.25;3.17;;;;;;;;;;4984831;28;20145;-45
2021/05/31 14:16:10;;;;;;;4.53;3.05;;;;;;;;;;4970515;28;20054;-50
2021/05/31 14:18:37;;;;;;;4.10;2.85;;;;;;;;;;4969820;28;20148;-51
2021/05/31 14:21:04;;;;;;;4.75;2.85;;;;;;;;;;4962627;28;20070;-55
2021/05/31 14:23:30;;;;;;;3.45;2.60;;;;;;;;;;4970133;28;20098;-52
2021/05/31 14:25:57;;;;;;;3.88;2.50;;;;;;;;;;4970599;28;20047;-52
2021/05/31 14:28:24;;;;;;;5.10;2.83;;;;;;;;;;4971051;28;20043;-43
2021/05/31 14:30:51;;;;;;;4.20;3.10;;;;;;;;;;4975749;28;20121;-47
2021/05/31 14:33:18;;;;;;;3.97;2.70;;;;;;;;;;4968157;28;20070;-46
2021/05/31 14:35:56;;;;;;;4.22;3.08;;;;;;;;;;4968822;28;20066;-47
2021/05/31 14:38:23;;;;;;;3.53;2.70;;;;;;;;;;4982695;28;20114;-47
2021/05/31 14:40:52;;;;;;;3.85;2.42;;;;;;;;;;4969179;28;20109;-47
2021/05/31 14:43:20;;;;;;;4.38;2.60;;;;;;;;;;4963901;28;20098;-47
2021/05/31 14:45:47;;;;;;;3.40;2.70;;;;;;;;;;4964361;28;20054;-49
2021/05/31 14:48:14;;;;;;;3.28;2.50;;;;;;;;;;4968956;28;20509;-48
2021/05/31 14:50:41;;;;;;;3.30;2.40;;;;;;;;;;4981884;28;20070;-46
2021/05/31 14:53:07;;;;;;;5.43;2.50;;;;;;;;;;4971789;28;20059;-49
2021/05/31 14:55:34;;;;;;;5.72;2.58;;;;;;;;;;4974023;28;20054;-45
2021/05/31 14:58:04;;;;;;;3.13;2.75;;;;;;;;;;4987890;28;20131;-45
2021/05/31 15:00:31;;;;;;;3.95;2.70;;;;;;;;;;4971155;28;20382;-45
2021/05/31 15:03:02;;;;;;;3.53;2.60;;;;;;;;;;4975030;28;20591;-50
2021/05/31 15:05:28;;;;;;;3.95;2.70;;;;;;;;;;4975815;28;20051;-47
2021/05/31 15:07:55;;;;;;;4.35;2.35;;;;;;;;;;4972684;28;20050;-48